Terminal Aerodrome Forecast
Issued by NWS

Home | Current Version | Previous Version | Text Only | Print | Product List | Glossary On
Versions: 1 2 3 4 5 6 7 8 9 10 11 12 13 14 15 16 17
000
FTUS44 KHGX 162101 AAA
TAFCXO
TAF AMD
KCXO 162101Z 1621/1718 01005KT P6SM VCSH FEW050 BKN070
     FM170100 05007KT 4SM +SHRA BR SCT007 OVC015
     FM170500 11008KT 4SM BR VCSH OVC008
     FM171100 18002KT 2SM BR OVC007
     FM171700 13003KT P6SM FEW015=

USA.gov is the U.S. government's official web portal to all federal, state and local government web resources and services.